Ann Arbor, MI

8:36 AM EST on December 09, 2016 (GMT -0500)
Leslie Park Golf Course | | Change Station

Elev 906 ft 42.31 °N, 83.72 °W | Updated 1 minute ago

Overcast
Overcast
26.9 °F
Feels Like 27 °F
N
2.0
Wind Variable Wind from West
Gusts 8.0 mph

Today
High -- | Low -- °F
--% Chance of Precip.
Yesterday
High -- | Low -- °F
Precip. -- in
Pressure 30.38 in
Visibility 4.0 miles
Clouds Few 2400 ft
Mostly Cloudy 6000 ft
Overcast 8000 ft
Windchill 27 °F
Dew Point 25 °F
Humidity 92%
Rainfall 0.00 in
Snow Depth Not available.
7:52 AM 5:02 PM
Waxing Gibbous, 74% visible
METAR KARB 091253Z AUTO 25007KT 4SM -SN BR FEW024 BKN060 OVC080 M04/M05 A3034 RMK AO2 SNB39 SLP285 P0000 T10391050
Pressure 30.38 in
Visibility 4.0 miles
Clouds Few 2400 ft
Mostly Cloudy 6000 ft
Overcast 8000 ft
Windchill 27 °F
Dew Point 25 °F
Humidity 92%
Rainfall 0.00 in
Snow Depth Not available.
7:52 AM 5:02 PM
Waxing Gibbous, 74% visible
METAR KARB 091253Z AUTO 25007KT 4SM -SN BR FEW024 BKN060 OVC080 M04/M05 A3034 RMK AO2 SNB39 SLP285 P0000 T10391050

10-Day Weather Forecast

Almanac

Astronomy

Dec. 09, 2016 Rise Set
Actual Time
Civil Twilight
Nautical Twilight
Astronomical Twilight
Moon
Length of Visible Light
Length of Day
Tomorrow will be .
, % of the Moon is Illuminated

Today's Extremes

State Highs State Lows

Community

WunderPhotos

Upload Photos

1,956,407 photos uploaded!

WunderBlog® & News

Nearby

Air Quality

  Air Quality AQ Index Pollutant
Not available.

Snow Depth

Station Depth Elevation

Earthquake Activity

City Distance Mag. Time & Date
Minimum magnitude displayed is 2.5.

Coastal Water Temperatures

Place Temperature

Stations

Nearby Weather Stations

Station Location Temp. Windchill Dew Point Humidity Wind Precip. Elev Updated Type
                   

Watches & Warnings

There are currently no watches in effect.